Istanbul, Turkey

6:32 AM +03 on March 24, 2017 (GMT +0300)
Ataturk | | Change Station

Elev 121 ft 40.97 °N, 28.82 °E | Updated 12 minutes ago

Scattered Clouds
Scattered Clouds
43 °F
Feels Like 39 °F
N
6
Wind Variable Wind from North

Today
High -- | Low -- °F
--% Chance of Precip.
Yesterday
High -- | Low -- °F
Precip. -- in
Pressure 30.21 in
Visibility 6.2 miles
Clouds Scattered Clouds 1200 ft
Windchill 39 °F
Dew Point 41 °F
Humidity 93%
Rainfall 0.00 in
Snow Depth Not available.
7:01 AM 7:21 PM
Waning Crescent, 18% visible
METAR LTBA 240320Z 35005KT 330V060 9999 SCT012 06/05 Q1023 NOSIG RMK RWY17L 36005KT RWY05 36004KT 330V030 RWY23 03006KT
Pressure 30.21 in
Visibility 6.2 miles
Clouds Scattered Clouds 1200 ft
Windchill 39 °F
Dew Point 41 °F
Humidity 93%
Rainfall 0.00 in
Snow Depth Not available.
7:01 AM 7:21 PM
Waning Crescent, 18% visible
METAR LTBA 240320Z 35005KT 330V060 9999 SCT012 06/05 Q1023 NOSIG RMK RWY17L 36005KT RWY05 36004KT 330V030 RWY23 03006KT

Get Severe Weather Alerts

Thanks for signing up!

Be on the lookout for a verification email in your inbox.

You'll start receiving the daily forecast at 8 AM.

×

10-Day Weather Forecast

×

Almanac

Astronomy

Mar. 24, 2017 Rise Set
Actual Time
Civil Twilight
Nautical Twilight
Astronomical Twilight
Moon
Length of Visible Light
Length of Day
Tomorrow will be .
, % of the Moon is Illuminated

Today's Extremes

Country Highs Country Lows

Community

WunderPhotos

Upload Photos

1,962,540 photos uploaded!

WunderBlog® & News

Nearby

Air Quality

  Air Quality AQ Index Pollutant
Not available.

Snow Depth

Station Depth Elevation

Earthquake Activity

City Distance Mag. Time & Date
Minimum magnitude displayed is 2.5.

Earthquake Activity

City Distance Mag. Time & Date
Minimum magnitude displayed is 2.5.

Coastal Water Temperatures

Place Temperature

Stations

Nearby Weather Stations

Station Location Temp. Windchill Dew Point Humidity Wind Precip. Elev Updated Type